Terminal Aerodrome Forecast
Issued by NWS

Home | Current Version | Previous Version | Text Only | Print | Product List | Glossary On
Versions: 1 2 3 4 5 6 7 8 9 10 11 12 13 14 15 16 17 18 19
000
FTUS43 KLSX 011725
TAFUIN
TAF
KUIN 011725Z 0118/0218 19008KT P6SM SCT045
     FM012100 21007KT P6SM SCT045 SCT120
     FM021000 20006KT P6SM VCSH SCT040
     FM021600 23012G18KT P6SM SCT040=

USA.gov is the U.S. government's official web portal to all federal, state and local government web resources and services.